sensor_id;sensor_type;location;lat;lon;timestamp;temperature;humidity
38084;DHT22;23894;51.466;7.444;2022-11-20T00:00:15;-1.70;99.90
38084;DHT22;23894;51.466;7.444;2022-11-20T00:02:16;-1.70;99.90
38084;DHT22;23894;51.466;7.444;2022-11-20T00:04:17;-1.70;99.90
38084;DHT22;23894;51.466;7.444;2022-11-20T00:06:19;-1.70;99.90
38084;DHT22;23894;51.466;7.444;2022-11-20T00:08:19;-1.70;99.90
38084;DHT22;23894;51.466;7.444;2022-11-20T00:10:20;-1.60;99.90
38084;DHT22;23894;51.466;7.444;2022-11-20T00:12:21;-1.50;99.90
38084;DHT22;23894;51.466;7.444;2022-11-20T00:14:21;-1.50;99.90
38084;DHT22;23894;51.466;7.444;2022-11-20T00:16:23;-1.40;99.90
38084;DHT22;23894;51.466;7.444;2022-11-20T00:18:25;-1.40;99.90
38084;DHT22;23894;51.466;7.444;2022-11-20T00:20:26;-1.30;99.90
38084;DHT22;23894;51.466;7.444;2022-11-20T00:22:26;-1.30;99.90
38084;DHT22;23894;51.466;7.444;2022-11-20T00:24:27;-1.20;99.90
38084;DHT22;23894;51.466;7.444;2022-11-20T00:26:28;-1.20;99.90
38084;DHT22;23894;51.466;7.444;2022-11-20T00:28:28;-1.10;99.90
38084;DHT22;23894;51.466;7.444;2022-11-20T00:30:29;-1.10;99.90
38084;DHT22;23894;51.466;7.444;2022-11-20T00:32:30;-1.10;99.90
38084;DHT22;23894;51.466;7.444;2022-11-20T00:34:30;-1.00;99.90
38084;DHT22;23894;51.466;7.444;2022-11-20T00:36:33;-1.00;99.90
38084;DHT22;23894;51.466;7.444;2022-11-20T00:38:34;-0.90;99.90
38084;DHT22;23894;51.466;7.444;2022-11-20T00:40:35;-0.90;99.90
38084;DHT22;23894;51.466;7.444;2022-11-20T00:42:35;-0.80;99.90
38084;DHT22;23894;51.466;7.444;2022-11-20T00:44:36;-0.80;99.90
38084;DHT22;23894;51.466;7.444;2022-11-20T00:46:36;-0.70;99.90
38084;DHT22;23894;51.466;7.444;2022-11-20T00:48:37;-0.70;99.90
38084;DHT22;23894;51.466;7.444;2022-11-20T00:50:37;-0.60;99.90
38084;DHT22;23894;51.466;7.444;2022-11-20T00:52:39;-0.60;99.90
38084;DHT22;23894;51.466;7.444;2022-11-20T00:54:39;-0.50;99.90
38084;DHT22;23894;51.466;7.444;2022-11-20T00:56:40;-0.50;99.90
38084;DHT22;23894;51.466;7.444;2022-11-20T00:58:43;-0.50;99.90
38084;DHT22;23894;51.466;7.444;2022-11-20T01:00:43;-0.40;99.90
38084;DHT22;23894;51.466;7.444;2022-11-20T01:02:44;-0.40;99.90
38084;DHT22;23894;51.466;7.444;2022-11-20T01:04:44;-0.40;99.90
38084;DHT22;23894;51.466;7.444;2022-11-20T01:06:45;-0.30;99.90
38084;DHT22;23894;51.466;7.444;2022-11-20T01:08:47;-0.30;99.90
38084;DHT22;23894;51.466;7.444;2022-11-20T01:10:47;-0.30;99.90
38084;DHT22;23894;51.466;7.444;2022-11-20T01:12:48;-0.20;99.90
38084;DHT22;23894;51.466;7.444;2022-11-20T01:15:09;-0.20;99.90
38084;DHT22;23894;51.466;7.444;2022-11-20T01:17:09;-0.20;99.90
38084;DHT22;23894;51.466;7.444;2022-11-20T01:19:13;-0.10;99.90
38084;DHT22;23894;51.466;7.444;2022-11-20T01:21:20;-0.10;99.90
38084;DHT22;23894;51.466;7.444;2022-11-20T01:23:21;0.00;99.90
38084;DHT22;23894;51.466;7.444;2022-11-20T01:25:21;0.00;99.90
38084;DHT22;23894;51.466;7.444;2022-11-20T01:27:22;0.00;99.90
38084;DHT22;23894;51.466;7.444;2022-11-20T01:29:23;0.00;99.90
38084;DHT22;23894;51.466;7.444;2022-11-20T01:33:26;0.10;99.90
38084;DHT22;23894;51.466;7.444;2022-11-20T01:35:27;0.20;99.90
38084;DHT22;23894;51.466;7.444;2022-11-20T01:37:27;0.20;99.90
38084;DHT22;23894;51.466;7.444;2022-11-20T01:39:28;0.20;99.90
38084;DHT22;23894;51.466;7.444;2022-11-20T01:41:32;0.20;99.90
38084;DHT22;23894;51.466;7.444;2022-11-20T01:43:51;0.30;99.90
38084;DHT22;23894;51.466;7.444;2022-11-20T01:46:25;0.30;99.90
38084;DHT22;23894;51.466;7.444;2022-11-20T01:48:30;0.40;99.90
38084;DHT22;23894;51.466;7.444;2022-11-20T01:50:32;0.40;99.90
38084;DHT22;23894;51.466;7.444;2022-11-20T01:52:41;0.40;99.90
38084;DHT22;23894;51.466;7.444;2022-11-20T01:54:51;0.40;99.90
38084;DHT22;23894;51.466;7.444;2022-11-20T01:56:55;0.40;99.90
38084;DHT22;23894;51.466;7.444;2022-11-20T01:58:59;0.50;99.90
38084;DHT22;23894;51.466;7.444;2022-11-20T02:01:04;0.50;99.90
38084;DHT22;23894;51.466;7.444;2022-11-20T02:03:13;0.50;99.90
38084;DHT22;23894;51.466;7.444;2022-11-20T02:05:23;0.60;99.90
38084;DHT22;23894;51.466;7.444;2022-11-20T02:07:24;0.60;99.90
38084;DHT22;23894;51.466;7.444;2022-11-20T02:09:25;0.70;99.90
38084;DHT22;23894;51.466;7.444;2022-11-20T02:11:25;0.70;99.90
38084;DHT22;23894;51.466;7.444;2022-11-20T02:13:26;0.70;99.90
38084;DHT22;23894;51.466;7.444;2022-11-20T02:15:45;0.70;99.90
38084;DHT22;23894;51.466;7.444;2022-11-20T02:17:46;0.80;99.90
38084;DHT22;23894;51.466;7.444;2022-11-20T02:19:47;0.80;99.90
38084;DHT22;23894;51.466;7.444;2022-11-20T02:22:10;0.80;99.90
38084;DHT22;23894;51.466;7.444;2022-11-20T02:24:19;0.80;99.90
38084;DHT22;23894;51.466;7.444;2022-11-20T02:26:23;0.90;99.90
38084;DHT22;23894;51.466;7.444;2022-11-20T02:28:24;0.90;99.90
38084;DHT22;23894;51.466;7.444;2022-11-20T02:30:24;0.90;99.90
38084;DHT22;23894;51.466;7.444;2022-11-20T02:32:28;0.90;99.90
38084;DHT22;23894;51.466;7.444;2022-11-20T02:34:29;1.00;99.90
38084;DHT22;23894;51.466;7.444;2022-11-20T02:36:30;1.00;99.90
38084;DHT22;23894;51.466;7.444;2022-11-20T02:38:32;1.00;99.90
38084;DHT22;23894;51.466;7.444;2022-11-20T02:40:32;1.10;99.90
38084;DHT22;23894;51.466;7.444;2022-11-20T02:42:33;1.10;99.90
38084;DHT22;23894;51.466;7.444;2022-11-20T02:44:33;1.10;99.90
38084;DHT22;23894;51.466;7.444;2022-11-20T02:46:34;1.10;99.90
38084;DHT22;23894;51.466;7.444;2022-11-20T02:48:35;1.10;99.90
38084;DHT22;23894;51.466;7.444;2022-11-20T02:50:39;1.10;99.90
38084;DHT22;23894;51.466;7.444;2022-11-20T02:52:41;1.10;99.90
38084;DHT22;23894;51.466;7.444;2022-11-20T02:54:41;1.20;99.90
38084;DHT22;23894;51.466;7.444;2022-11-20T02:56:42;1.20;99.90
38084;DHT22;23894;51.466;7.444;2022-11-20T02:58:43;1.20;99.90
38084;DHT22;23894;51.466;7.444;2022-11-20T03:00:44;1.30;99.90
38084;DHT22;23894;51.466;7.444;2022-11-20T03:02:44;1.30;99.90
38084;DHT22;23894;51.466;7.444;2022-11-20T03:04:45;1.30;99.90
38084;DHT22;23894;51.466;7.444;2022-11-20T03:06:45;1.30;99.90
38084;DHT22;23894;51.466;7.444;2022-11-20T03:08:49;1.30;99.90
38084;DHT22;23894;51.466;7.444;2022-11-20T03:10:50;1.30;99.90
38084;DHT22;23894;51.466;7.444;2022-11-20T03:12:56;1.40;99.90
38084;DHT22;23894;51.466;7.444;2022-11-20T03:14:56;1.40;99.90
38084;DHT22;23894;51.466;7.444;2022-11-20T03:16:57;1.40;99.90
38084;DHT22;23894;51.466;7.444;2022-11-20T03:18:58;1.50;99.90
38084;DHT22;23894;51.466;7.444;2022-11-20T03:20:59;1.50;99.90
38084;DHT22;23894;51.466;7.444;2022-11-20T03:22:59;1.50;99.90
38084;DHT22;23894;51.466;7.444;2022-11-20T03:25:00;1.50;99.90
38084;DHT22;23894;51.466;7.444;2022-11-20T03:27:01;1.60;99.90
38084;DHT22;23894;51.466;7.444;2022-11-20T03:29:03;1.60;99.90
38084;DHT22;23894;51.466;7.444;2022-11-20T03:31:09;1.60;99.90
38084;DHT22;23894;51.466;7.444;2022-11-20T03:33:10;1.60;99.90
38084;DHT22;23894;51.466;7.444;2022-11-20T03:35:10;1.70;99.90
38084;DHT22;23894;51.466;7.444;2022-11-20T03:37:11;1.70;99.90
38084;DHT22;23894;51.466;7.444;2022-11-20T03:39:11;1.70;99.90
38084;DHT22;23894;51.466;7.444;2022-11-20T03:41:18;1.70;99.90
38084;DHT22;23894;51.466;7.444;2022-11-20T03:43:18;1.70;99.90
38084;DHT22;23894;51.466;7.444;2022-11-20T03:45:19;1.70;99.90
38084;DHT22;23894;51.466;7.444;2022-11-20T03:47:20;1.70;99.90
38084;DHT22;23894;51.466;7.444;2022-11-20T03:49:20;1.80;99.90
38084;DHT22;23894;51.466;7.444;2022-11-20T03:51:23;1.70;99.90
38084;DHT22;23894;51.466;7.444;2022-11-20T03:53:24;1.80;99.90
38084;DHT22;23894;51.466;7.444;2022-11-20T03:55:24;1.80;99.90
38084;DHT22;23894;51.466;7.444;2022-11-20T03:57:25;1.80;99.90
38084;DHT22;23894;51.466;7.444;2022-11-20T03:59:25;1.80;99.90
38084;DHT22;23894;51.466;7.444;2022-11-20T04:01:29;1.80;99.90
38084;DHT22;23894;51.466;7.444;2022-11-20T04:03:30;1.80;99.90
38084;DHT22;23894;51.466;7.444;2022-11-20T04:05:30;1.90;99.90
38084;DHT22;23894;51.466;7.444;2022-11-20T04:07:33;1.80;99.90
38084;DHT22;23894;51.466;7.444;2022-11-20T04:09:34;1.90;99.90
38084;DHT22;23894;51.466;7.444;2022-11-20T04:11:36;1.90;99.90
38084;DHT22;23894;51.466;7.444;2022-11-20T04:13:37;1.90;99.90
38084;DHT22;23894;51.466;7.444;2022-11-20T04:15:38;1.90;99.90
38084;DHT22;23894;51.466;7.444;2022-11-20T04:17:39;1.90;99.90
38084;DHT22;23894;51.466;7.444;2022-11-20T04:19:39;1.90;99.90
38084;DHT22;23894;51.466;7.444;2022-11-20T04:21:40;1.90;99.90
38084;DHT22;23894;51.466;7.444;2022-11-20T04:23:41;1.90;99.90
38084;DHT22;23894;51.466;7.444;2022-11-20T04:25:41;1.90;99.90
38084;DHT22;23894;51.466;7.444;2022-11-20T04:27:42;1.90;99.90
38084;DHT22;23894;51.466;7.444;2022-11-20T04:29:42;1.90;99.90
38084;DHT22;23894;51.466;7.444;2022-11-20T04:31:43;1.90;99.90
38084;DHT22;23894;51.466;7.444;2022-11-20T04:33:44;2.00;99.90
38084;DHT22;23894;51.466;7.444;2022-11-20T04:35:47;2.00;99.90
38084;DHT22;23894;51.466;7.444;2022-11-20T04:37:51;2.00;99.90
38084;DHT22;23894;51.466;7.444;2022-11-20T04:39:51;2.00;99.90
38084;DHT22;23894;51.466;7.444;2022-11-20T04:41:52;1.90;99.90
38084;DHT22;23894;51.466;7.444;2022-11-20T04:44:12;2.00;99.90
38084;DHT22;23894;51.466;7.444;2022-11-20T04:46:13;2.00;99.90
38084;DHT22;23894;51.466;7.444;2022-11-20T04:48:14;2.00;99.90
38084;DHT22;23894;51.466;7.444;2022-11-20T04:50:14;2.00;99.90
38084;DHT22;23894;51.466;7.444;2022-11-20T04:52:15;2.00;99.90
38084;DHT22;23894;51.466;7.444;2022-11-20T04:54:16;2.00;99.90
38084;DHT22;23894;51.466;7.444;2022-11-20T04:56:17;2.10;99.90
38084;DHT22;23894;51.466;7.444;2022-11-20T04:58:17;2.10;99.90
38084;DHT22;23894;51.466;7.444;2022-11-20T05:00:18;2.10;99.90
38084;DHT22;23894;51.466;7.444;2022-11-20T05:02:18;2.10;99.90
38084;DHT22;23894;51.466;7.444;2022-11-20T05:04:19;2.10;99.90
38084;DHT22;23894;51.466;7.444;2022-11-20T05:06:20;2.20;99.90
38084;DHT22;23894;51.466;7.444;2022-11-20T05:08:21;2.10;99.90
38084;DHT22;23894;51.466;7.444;2022-11-20T05:10:22;2.10;99.90
38084;DHT22;23894;51.466;7.444;2022-11-20T05:12:22;2.10;99.90
38084;DHT22;23894;51.466;7.444;2022-11-20T05:14:23;2.10;99.90
38084;DHT22;23894;51.466;7.444;2022-11-20T05:16:24;2.10;99.90
38084;DHT22;23894;51.466;7.444;2022-11-20T05:18:25;2.10;99.90
38084;DHT22;23894;51.466;7.444;2022-11-20T05:20:25;2.10;99.90
38084;DHT22;23894;51.466;7.444;2022-11-20T05:22:26;2.20;99.90
38084;DHT22;23894;51.466;7.444;2022-11-20T05:24:26;2.20;99.90
38084;DHT22;23894;51.466;7.444;2022-11-20T05:26:27;2.20;99.90
38084;DHT22;23894;51.466;7.444;2022-11-20T05:28:29;2.10;99.90
38084;DHT22;23894;51.466;7.444;2022-11-20T05:30:29;2.20;99.90
38084;DHT22;23894;51.466;7.444;2022-11-20T05:32:30;2.20;99.90
38084;DHT22;23894;51.466;7.444;2022-11-20T05:34:31;2.20;99.90
38084;DHT22;23894;51.466;7.444;2022-11-20T05:36:32;2.10;99.90
38084;DHT22;23894;51.466;7.444;2022-11-20T05:38:32;2.10;99.90
38084;DHT22;23894;51.466;7.444;2022-11-20T05:40:33;2.10;99.90
38084;DHT22;23894;51.466;7.444;2022-11-20T05:42:33;2.10;99.90
38084;DHT22;23894;51.466;7.444;2022-11-20T05:44:34;2.10;99.90
38084;DHT22;23894;51.466;7.444;2022-11-20T05:46:34;2.10;99.90
38084;DHT22;23894;51.466;7.444;2022-11-20T05:48:36;2.10;99.90
38084;DHT22;23894;51.466;7.444;2022-11-20T05:50:37;2.10;99.90
38084;DHT22;23894;51.466;7.444;2022-11-20T05:52:38;2.10;99.90
38084;DHT22;23894;51.466;7.444;2022-11-20T05:54:38;2.00;99.90
38084;DHT22;23894;51.466;7.444;2022-11-20T05:56:39;2.00;99.90
38084;DHT22;23894;51.466;7.444;2022-11-20T05:58:40;2.00;99.90
38084;DHT22;23894;51.466;7.444;2022-11-20T06:00:40;1.90;99.90
38084;DHT22;23894;51.466;7.444;2022-11-20T06:02:41;1.90;99.90
38084;DHT22;23894;51.466;7.444;2022-11-20T06:04:42;1.90;99.90
38084;DHT22;23894;51.466;7.444;2022-11-20T06:06:42;1.80;99.90
38084;DHT22;23894;51.466;7.444;2022-11-20T06:08:44;1.80;99.90
38084;DHT22;23894;51.466;7.444;2022-11-20T06:10:44;1.80;99.90
38084;DHT22;23894;51.466;7.444;2022-11-20T06:12:45;1.80;99.90
38084;DHT22;23894;51.466;7.444;2022-11-20T06:14:45;1.80;99.90
38084;DHT22;23894;51.466;7.444;2022-11-20T06:16:46;1.80;99.90
38084;DHT22;23894;51.466;7.444;2022-11-20T06:18:47;1.70;99.90
38084;DHT22;23894;51.466;7.444;2022-11-20T06:20:48;1.70;99.90
38084;DHT22;23894;51.466;7.444;2022-11-20T06:22:48;1.70;99.90
38084;DHT22;23894;51.466;7.444;2022-11-20T06:24:49;1.60;99.90
38084;DHT22;23894;51.466;7.444;2022-11-20T06:26:49;1.60;99.90
38084;DHT22;23894;51.466;7.444;2022-11-20T06:28:51;1.60;99.90
38084;DHT22;23894;51.466;7.444;2022-11-20T06:30:52;1.60;99.90
38084;DHT22;23894;51.466;7.444;2022-11-20T06:32:53;1.60;99.90
38084;DHT22;23894;51.466;7.444;2022-11-20T06:34:53;1.60;99.90
38084;DHT22;23894;51.466;7.444;2022-11-20T06:36:54;1.50;99.90
38084;DHT22;23894;51.466;7.444;2022-11-20T06:38:54;1.50;99.90
38084;DHT22;23894;51.466;7.444;2022-11-20T06:40:55;1.50;99.90
38084;DHT22;23894;51.466;7.444;2022-11-20T06:42:56;1.40;99.90
38084;DHT22;23894;51.466;7.444;2022-11-20T06:44:56;1.40;99.90
38084;DHT22;23894;51.466;7.444;2022-11-20T06:46:57;1.30;99.90
38084;DHT22;23894;51.466;7.444;2022-11-20T06:48:57;1.30;99.90
38084;DHT22;23894;51.466;7.444;2022-11-20T06:50:59;1.30;99.90
38084;DHT22;23894;51.466;7.444;2022-11-20T06:53:03;1.20;99.90
38084;DHT22;23894;51.466;7.444;2022-11-20T06:55:05;1.20;99.90
38084;DHT22;23894;51.466;7.444;2022-11-20T06:57:07;1.10;99.90
38084;DHT22;23894;51.466;7.444;2022-11-20T06:59:08;1.10;99.90
38084;DHT22;23894;51.466;7.444;2022-11-20T07:01:11;1.10;99.90
38084;DHT22;23894;51.466;7.444;2022-11-20T07:03:12;1.00;99.90
38084;DHT22;23894;51.466;7.444;2022-11-20T07:05:13;1.00;99.90
38084;DHT22;23894;51.466;7.444;2022-11-20T07:07:13;1.00;99.90
38084;DHT22;23894;51.466;7.444;2022-11-20T07:09:14;1.00;99.90
38084;DHT22;23894;51.466;7.444;2022-11-20T07:11:15;1.00;99.90
38084;DHT22;23894;51.466;7.444;2022-11-20T07:13:15;1.00;99.90
38084;DHT22;23894;51.466;7.444;2022-11-20T07:15:16;0.90;99.90
38084;DHT22;23894;51.466;7.444;2022-11-20T07:17:17;0.80;99.90
38084;DHT22;23894;51.466;7.444;2022-11-20T07:19:17;0.80;99.90
38084;DHT22;23894;51.466;7.444;2022-11-20T07:21:18;0.80;99.90
38084;DHT22;23894;51.466;7.444;2022-11-20T07:23:18;0.80;99.90
38084;DHT22;23894;51.466;7.444;2022-11-20T07:25:19;0.70;99.90
38084;DHT22;23894;51.466;7.444;2022-11-20T07:27:20;0.70;99.90
38084;DHT22;23894;51.466;7.444;2022-11-20T07:29:20;0.70;99.90
38084;DHT22;23894;51.466;7.444;2022-11-20T07:31:21;0.70;99.90
38084;DHT22;23894;51.466;7.444;2022-11-20T07:33:21;0.70;99.90
38084;DHT22;23894;51.466;7.444;2022-11-20T07:35:25;0.60;99.90
38084;DHT22;23894;51.466;7.444;2022-11-20T07:37:26;0.60;99.90
38084;DHT22;23894;51.466;7.444;2022-11-20T07:39:26;0.60;99.90
38084;DHT22;23894;51.466;7.444;2022-11-20T07:41:27;0.60;99.90
38084;DHT22;23894;51.466;7.444;2022-11-20T07:43:28;0.60;99.90
38084;DHT22;23894;51.466;7.444;2022-11-20T07:45:28;0.60;99.90
38084;DHT22;23894;51.466;7.444;2022-11-20T07:47:35;0.60;99.90
38084;DHT22;23894;51.466;7.444;2022-11-20T07:49:35;0.60;99.90
38084;DHT22;23894;51.466;7.444;2022-11-20T07:51:36;0.60;99.90
38084;DHT22;23894;51.466;7.444;2022-11-20T07:53:36;0.60;99.90
38084;DHT22;23894;51.466;7.444;2022-11-20T07:55:37;0.70;99.90
38084;DHT22;23894;51.466;7.444;2022-11-20T07:57:38;0.70;99.90
38084;DHT22;23894;51.466;7.444;2022-11-20T07:59:38;0.80;99.90
38084;DHT22;23894;51.466;7.444;2022-11-20T08:01:39;0.80;99.90
38084;DHT22;23894;51.466;7.444;2022-11-20T08:03:40;0.90;99.90
38084;DHT22;23894;51.466;7.444;2022-11-20T08:05:40;0.90;99.90
38084;DHT22;23894;51.466;7.444;2022-11-20T08:07:43;1.00;99.90
38084;DHT22;23894;51.466;7.444;2022-11-20T08:09:43;1.00;99.90
38084;DHT22;23894;51.466;7.444;2022-11-20T08:11:44;1.00;99.90
38084;DHT22;23894;51.466;7.444;2022-11-20T08:14:04;1.00;99.90
38084;DHT22;23894;51.466;7.444;2022-11-20T08:16:14;1.00;99.90
38084;DHT22;23894;51.466;7.444;2022-11-20T08:18:15;1.10;99.90
38084;DHT22;23894;51.466;7.444;2022-11-20T08:20:15;1.10;99.90
38084;DHT22;23894;51.466;7.444;2022-11-20T08:22:16;1.20;99.90
38084;DHT22;23894;51.466;7.444;2022-11-20T08:24:17;1.20;99.90
38084;DHT22;23894;51.466;7.444;2022-11-20T08:26:18;1.30;99.90
38084;DHT22;23894;51.466;7.444;2022-11-20T08:28:20;1.40;99.90
38084;DHT22;23894;51.466;7.444;2022-11-20T08:30:22;1.40;99.90
38084;DHT22;23894;51.466;7.444;2022-11-20T08:32:22;1.40;99.90
38084;DHT22;23894;51.466;7.444;2022-11-20T08:34:23;1.40;99.90
38084;DHT22;23894;51.466;7.444;2022-11-20T08:36:24;1.50;99.90
38084;DHT22;23894;51.466;7.444;2022-11-20T08:38:25;1.50;99.90
38084;DHT22;23894;51.466;7.444;2022-11-20T08:40:25;1.60;99.90
38084;DHT22;23894;51.466;7.444;2022-11-20T08:42:26;1.60;99.90
38084;DHT22;23894;51.466;7.444;2022-11-20T08:44:27;1.70;99.90
38084;DHT22;23894;51.466;7.444;2022-11-20T08:46:32;1.80;99.90
38084;DHT22;23894;51.466;7.444;2022-11-20T08:48:39;1.80;99.90
38084;DHT22;23894;51.466;7.444;2022-11-20T08:50:40;1.90;99.90
38084;DHT22;23894;51.466;7.444;2022-11-20T08:52:40;2.00;99.90
38084;DHT22;23894;51.466;7.444;2022-11-20T08:54:41;2.10;99.90
38084;DHT22;23894;51.466;7.444;2022-11-20T08:56:42;2.20;99.90
38084;DHT22;23894;51.466;7.444;2022-11-20T08:58:42;2.20;99.90
38084;DHT22;23894;51.466;7.444;2022-11-20T09:00:43;2.30;99.90
38084;DHT22;23894;51.466;7.444;2022-11-20T09:02:44;2.40;99.90
38084;DHT22;23894;51.466;7.444;2022-11-20T09:04:44;2.50;99.90
38084;DHT22;23894;51.466;7.444;2022-11-20T09:06:45;2.50;99.90
38084;DHT22;23894;51.466;7.444;2022-11-20T09:08:45;2.60;99.90
38084;DHT22;23894;51.466;7.444;2022-11-20T09:10:51;2.70;99.90
38084;DHT22;23894;51.466;7.444;2022-11-20T09:12:53;2.70;99.90
38084;DHT22;23894;51.466;7.444;2022-11-20T09:14:53;2.80;99.90
38084;DHT22;23894;51.466;7.444;2022-11-20T09:16:57;2.90;99.90
38084;DHT22;23894;51.466;7.444;2022-11-20T09:18:58;3.00;99.90
38084;DHT22;23894;51.466;7.444;2022-11-20T09:20:59;3.10;99.90
38084;DHT22;23894;51.466;7.444;2022-11-20T09:23:00;3.20;99.90
38084;DHT22;23894;51.466;7.444;2022-11-20T09:25:00;3.20;99.90
38084;DHT22;23894;51.466;7.444;2022-11-20T09:27:02;3.30;99.90
38084;DHT22;23894;51.466;7.444;2022-11-20T09:29:04;3.30;99.90
38084;DHT22;23894;51.466;7.444;2022-11-20T09:31:17;3.50;99.90
38084;DHT22;23894;51.466;7.444;2022-11-20T09:33:20;3.50;99.90
38084;DHT22;23894;51.466;7.444;2022-11-20T09:35:20;3.60;99.90
38084;DHT22;23894;51.466;7.444;2022-11-20T09:37:21;3.60;99.90
38084;DHT22;23894;51.466;7.444;2022-11-20T09:39:23;3.70;99.90
38084;DHT22;23894;51.466;7.444;2022-11-20T09:43:56;3.90;99.90
38084;DHT22;23894;51.466;7.444;2022-11-20T09:46:22;4.00;99.90
38084;DHT22;23894;51.466;7.444;2022-11-20T09:53:20;4.20;99.90
38084;DHT22;23894;51.466;7.444;2022-11-20T09:55:24;4.30;99.90
38084;DHT22;23894;51.466;7.444;2022-11-20T09:57:36;4.40;99.90
38084;DHT22;23894;51.466;7.444;2022-11-20T09:59:45;4.40;99.90
38084;DHT22;23894;51.466;7.444;2022-11-20T10:01:49;4.50;99.90
38084;DHT22;23894;51.466;7.444;2022-11-20T10:05:54;4.70;99.90
38084;DHT22;23894;51.466;7.444;2022-11-20T10:10:19;4.80;99.90
38084;DHT22;23894;51.466;7.444;2022-11-20T10:24:16;5.20;99.90
38084;DHT22;23894;51.466;7.444;2022-11-20T10:26:56;5.30;99.90
38084;DHT22;23894;51.466;7.444;2022-11-20T10:29:17;5.30;99.90
38084;DHT22;23894;51.466;7.444;2022-11-20T10:31:30;5.40;99.90
38084;DHT22;23894;51.466;7.444;2022-11-20T10:33:36;5.40;99.90
38084;DHT22;23894;51.466;7.444;2022-11-20T10:35:49;5.50;99.90
38084;DHT22;23894;51.466;7.444;2022-11-20T10:38:05;5.40;99.90
38084;DHT22;23894;51.466;7.444;2022-11-20T10:40:44;5.30;99.90
38084;DHT22;23894;51.466;7.444;2022-11-20T10:47:17;5.30;99.90
38084;DHT22;23894;51.466;7.444;2022-11-20T10:49:19;5.30;99.90
38084;DHT22;23894;51.466;7.444;2022-11-20T10:54:03;5.40;99.90
38084;DHT22;23894;51.466;7.444;2022-11-20T10:56:39;5.40;99.90
38084;DHT22;23894;51.466;7.444;2022-11-20T11:01:20;5.40;99.90
38084;DHT22;23894;51.466;7.444;2022-11-20T11:03:26;5.40;99.90
38084;DHT22;23894;51.466;7.444;2022-11-20T11:07:32;5.50;99.90
38084;DHT22;23894;51.466;7.444;2022-11-20T11:09:40;5.50;99.90
38084;DHT22;23894;51.466;7.444;2022-11-20T11:11:43;5.50;99.90
38084;DHT22;23894;51.466;7.444;2022-11-20T11:13:44;5.50;99.90
38084;DHT22;23894;51.466;7.444;2022-11-20T11:15:45;5.50;99.90
38084;DHT22;23894;51.466;7.444;2022-11-20T11:17:48;5.50;99.90
38084;DHT22;23894;51.466;7.444;2022-11-20T11:20:03;5.40;99.90
38084;DHT22;23894;51.466;7.444;2022-11-20T11:22:13;5.50;99.90
38084;DHT22;23894;51.466;7.444;2022-11-20T11:24:27;5.50;99.90
38084;DHT22;23894;51.466;7.444;2022-11-20T11:26:28;5.60;99.90
38084;DHT22;23894;51.466;7.444;2022-11-20T11:28:29;5.60;99.90
38084;DHT22;23894;51.466;7.444;2022-11-20T11:30:40;5.60;99.90
38084;DHT22;23894;51.466;7.444;2022-11-20T11:32:41;5.70;99.90
38084;DHT22;23894;51.466;7.444;2022-11-20T11:34:42;5.80;99.90
38084;DHT22;23894;51.466;7.444;2022-11-20T11:36:55;5.80;99.90
38084;DHT22;23894;51.466;7.444;2022-11-20T11:38:56;5.90;99.90
38084;DHT22;23894;51.466;7.444;2022-11-20T11:40:57;5.90;99.90
38084;DHT22;23894;51.466;7.444;2022-11-20T11:43:16;5.90;99.90
38084;DHT22;23894;51.466;7.444;2022-11-20T11:45:37;5.90;99.90
38084;DHT22;23894;51.466;7.444;2022-11-20T11:47:45;5.90;99.90
38084;DHT22;23894;51.466;7.444;2022-11-20T11:49:46;5.90;99.90
38084;DHT22;23894;51.466;7.444;2022-11-20T11:54:22;5.90;99.90
38084;DHT22;23894;51.466;7.444;2022-11-20T11:56:25;6.00;99.90
38084;DHT22;23894;51.466;7.444;2022-11-20T11:58:39;6.00;99.90
38084;DHT22;23894;51.466;7.444;2022-11-20T12:00:53;6.00;99.90
38084;DHT22;23894;51.466;7.444;2022-11-20T12:03:06;6.10;99.90
38084;DHT22;23894;51.466;7.444;2022-11-20T12:07:45;6.20;99.90
38084;DHT22;23894;51.466;7.444;2022-11-20T12:09:50;6.30;99.90
38084;DHT22;23894;51.466;7.444;2022-11-20T12:12:01;6.40;99.90
38084;DHT22;23894;51.466;7.444;2022-11-20T12:14:26;6.50;99.90
38084;DHT22;23894;51.466;7.444;2022-11-20T12:16:37;6.70;99.90
38084;DHT22;23894;51.466;7.444;2022-11-20T12:18:40;7.00;99.90
38084;DHT22;23894;51.466;7.444;2022-11-20T12:20:46;7.30;99.90
38084;DHT22;23894;51.466;7.444;2022-11-20T12:23:16;7.50;99.90
38084;DHT22;23894;51.466;7.444;2022-11-20T12:25:22;7.70;99.90
38084;DHT22;23894;51.466;7.444;2022-11-20T12:30:11;7.50;99.90
38084;DHT22;23894;51.466;7.444;2022-11-20T12:37:00;7.00;99.90
38084;DHT22;23894;51.466;7.444;2022-11-20T12:39:33;6.90;99.90
38084;DHT22;23894;51.466;7.444;2022-11-20T12:41:51;6.90;99.90
38084;DHT22;23894;51.466;7.444;2022-11-20T12:49:50;6.60;99.90
38084;DHT22;23894;51.466;7.444;2022-11-20T13:03:53;6.30;99.90
38084;DHT22;23894;51.466;7.444;2022-11-20T13:06:05;6.30;99.90
38084;DHT22;23894;51.466;7.444;2022-11-20T13:08:37;6.20;99.90
38084;DHT22;23894;51.466;7.444;2022-11-20T13:10:46;6.20;99.90
38084;DHT22;23894;51.466;7.444;2022-11-20T13:13:01;6.20;99.90
38084;DHT22;23894;51.466;7.444;2022-11-20T13:17:36;6.20;99.90
38084;DHT22;23894;51.466;7.444;2022-11-20T13:19:38;6.20;99.90
38084;DHT22;23894;51.466;7.444;2022-11-20T13:21:45;6.10;99.90
38084;DHT22;23894;51.466;7.444;2022-11-20T13:23:47;6.10;99.90
38084;DHT22;23894;51.466;7.444;2022-11-20T13:25:47;6.10;99.90
38084;DHT22;23894;51.466;7.444;2022-11-20T13:27:50;6.10;99.90
38084;DHT22;23894;51.466;7.444;2022-11-20T13:30:27;6.10;99.90
38084;DHT22;23894;51.466;7.444;2022-11-20T13:32:28;6.10;99.90
38084;DHT22;23894;51.466;7.444;2022-11-20T13:34:33;6.10;99.90
38084;DHT22;23894;51.466;7.444;2022-11-20T13:36:34;6.10;99.90
38084;DHT22;23894;51.466;7.444;2022-11-20T13:38:47;6.10;99.90
38084;DHT22;23894;51.466;7.444;2022-11-20T13:45:08;6.10;99.90
38084;DHT22;23894;51.466;7.444;2022-11-20T13:47:28;6.10;99.90
38084;DHT22;23894;51.466;7.444;2022-11-20T13:51:50;6.00;99.90
38084;DHT22;23894;51.466;7.444;2022-11-20T13:56:24;6.00;99.90
38084;DHT22;23894;51.466;7.444;2022-11-20T14:00:32;6.00;99.90
38084;DHT22;23894;51.466;7.444;2022-11-20T14:02:33;6.00;99.90
38084;DHT22;23894;51.466;7.444;2022-11-20T14:04:35;6.00;99.90
38084;DHT22;23894;51.466;7.444;2022-11-20T14:06:45;6.00;99.90
38084;DHT22;23894;51.466;7.444;2022-11-20T14:08:48;6.00;99.90
38084;DHT22;23894;51.466;7.444;2022-11-20T14:10:48;5.90;99.90
38084;DHT22;23894;51.466;7.444;2022-11-20T14:12:49;6.00;99.90
38084;DHT22;23894;51.466;7.444;2022-11-20T14:14:53;6.00;99.90
38084;DHT22;23894;51.466;7.444;2022-11-20T14:17:21;6.00;99.90
38084;DHT22;23894;51.466;7.444;2022-11-20T14:19:26;6.00;99.90
38084;DHT22;23894;51.466;7.444;2022-11-20T14:21:29;5.90;99.90
38084;DHT22;23894;51.466;7.444;2022-11-20T14:23:29;6.00;99.90
38084;DHT22;23894;51.466;7.444;2022-11-20T14:25:30;5.90;99.90
38084;DHT22;23894;51.466;7.444;2022-11-20T14:27:44;5.90;99.90
38084;DHT22;23894;51.466;7.444;2022-11-20T14:29:49;5.90;99.90
38084;DHT22;23894;51.466;7.444;2022-11-20T14:31:54;5.90;99.90
38084;DHT22;23894;51.466;7.444;2022-11-20T14:33:56;5.90;99.90